createdAt,value
2018-10-12T00:00:44.058Z,32.90
2018-10-12T00:03:14.147Z,37.80
2018-10-12T00:05:44.058Z,34.87
2018-10-12T00:08:13.789Z,37.17
2018-10-12T00:10:43.501Z,31.30
2018-10-12T00:13:13.159Z,41.30
2018-10-12T00:15:42.921Z,40.80
2018-10-12T00:18:12.539Z,37.33
2018-10-12T00:20:42.145Z,33.47
2018-10-12T00:23:12.834Z,37.70
2018-10-12T00:25:42.354Z,28.23
2018-10-12T00:28:12.177Z,41.60
2018-10-12T00:30:41.978Z,44.17
2018-10-12T00:33:11.617Z,35.47
2018-10-12T00:35:41.254Z,29.13
2018-10-12T00:38:10.932Z,26.73
2018-10-12T00:40:40.555Z,23.80
2018-10-12T00:43:10.107Z,32.40
2018-10-12T00:45:39.842Z,37.53
2018-10-12T00:48:09.629Z,26.03
2018-10-12T00:50:39.304Z,27.83
2018-10-12T00:53:09.045Z,19.53
2018-10-12T00:55:39.249Z,20.40
2018-10-12T00:58:09.150Z,21.60
2018-10-12T01:00:38.958Z,25.20
2018-10-12T01:03:08.555Z,21.00
2018-10-12T01:05:38.121Z,22.10
2018-10-12T01:08:07.840Z,23.40
2018-10-12T01:10:37.720Z,31.27
2018-10-12T01:13:07.463Z,28.67
2018-10-12T01:15:37.213Z,36.17
2018-10-12T01:18:06.720Z,35.27
2018-10-12T01:20:36.665Z,31.07
2018-10-12T01:23:06.423Z,31.37
2018-10-12T01:25:36.306Z,34.90
2018-10-12T01:28:06.558Z,32.90
2018-10-12T01:30:37.263Z,33.13
2018-10-12T01:33:07.564Z,31.43
2018-10-12T01:35:37.352Z,31.13
2018-10-12T01:38:06.909Z,29.17
2018-10-12T01:40:36.441Z,37.20
2018-10-12T01:43:07.200Z,32.90
2018-10-12T01:45:37.101Z,31.87
2018-10-12T01:48:06.639Z,25.83
2018-10-12T01:50:37.244Z,30.50
2018-10-12T01:53:07.192Z,37.30
2018-10-12T01:55:37.267Z,50.00
2018-10-12T01:58:07.752Z,30.43
2018-10-12T02:00:37.602Z,30.97
2018-10-12T02:03:07.329Z,36.07
2018-10-12T02:05:37.084Z,33.23
2018-10-12T02:08:06.911Z,32.30
2018-10-12T02:10:36.506Z,28.47
2018-10-12T02:13:06.152Z,25.37
2018-10-12T02:15:35.652Z,28.30
2018-10-12T02:18:05.447Z,28.60
2018-10-12T02:20:34.954Z,35.30
2018-10-12T02:23:04.563Z,28.13
2018-10-12T02:25:34.413Z,28.53
2018-10-12T02:28:04.162Z,28.30
2018-10-12T02:30:33.764Z,30.83
2018-10-12T02:33:03.503Z,30.37
2018-10-12T02:35:33.072Z,36.93
2018-10-12T02:38:02.633Z,30.53
2018-10-12T02:40:32.333Z,34.77
2018-10-12T02:43:02.013Z,47.80
2018-10-12T02:45:31.718Z,37.23
2018-10-12T02:48:01.348Z,29.67
2018-10-12T02:50:31.052Z,32.13
2018-10-12T02:53:00.787Z,28.23
2018-10-12T02:55:30.434Z,37.37
2018-10-12T02:58:00.099Z,29.07
2018-10-12T03:00:29.765Z,31.87
2018-10-12T03:02:59.308Z,29.30
2018-10-12T03:05:28.858Z,28.93
2018-10-12T03:07:58.598Z,30.87
2018-10-12T03:10:28.329Z,31.10
2018-10-12T03:12:57.969Z,26.23
2018-10-12T03:15:27.761Z,29.13
2018-10-12T03:17:57.501Z,26.90
2018-10-12T03:20:27.281Z,28.03
2018-10-12T03:22:56.909Z,25.97
2018-10-12T03:25:26.752Z,27.03
2018-10-12T03:28:07.281Z,22.13
2018-10-12T03:30:37.558Z,29.73
2018-10-12T03:33:07.509Z,31.33
2018-10-12T03:35:37.210Z,33.60
2018-10-12T03:38:07.117Z,30.63
2018-10-12T03:40:36.663Z,26.20
2018-10-12T03:43:06.243Z,39.73
2018-10-12T03:45:36.021Z,35.67
2018-10-12T03:48:05.729Z,32.03
2018-10-12T03:50:35.460Z,33.60
2018-10-12T03:53:05.442Z,32.63
2018-10-12T03:55:35.200Z,30.27
2018-10-12T03:58:04.957Z,30.90
2018-10-12T04:00:34.778Z,29.60
2018-10-12T04:03:04.752Z,30.43
2018-10-12T04:05:34.601Z,32.53
2018-10-12T04:08:04.208Z,32.43
2018-10-12T04:10:33.856Z,29.40
2018-10-12T04:13:03.467Z,31.30
2018-10-12T04:15:33.238Z,34.83
2018-10-12T04:18:04.257Z,34.43
2018-10-12T04:20:34.141Z,28.60
2018-10-12T04:23:04.455Z,33.80
2018-10-12T04:25:34.298Z,30.97
2018-10-12T04:28:03.976Z,32.77
2018-10-12T04:30:33.593Z,31.50
2018-10-12T04:33:03.337Z,32.07
2018-10-12T04:35:32.839Z,35.23
2018-10-12T04:38:02.608Z,31.17
2018-10-12T04:41:16.842Z,37.90
2018-10-12T04:43:47.603Z,33.87
2018-10-12T04:46:20.900Z,32.30
2018-10-12T04:48:53.177Z,40.53
2018-10-12T04:51:39.202Z,39.97
2018-10-12T04:54:09.108Z,43.20
2018-10-12T04:56:38.900Z,34.47
2018-10-12T04:59:08.813Z,38.93
2018-10-12T05:01:38.614Z,42.37
2018-10-12T05:04:08.401Z,40.50
2018-10-12T05:06:38.138Z,46.63
2018-10-12T05:09:09.594Z,38.20
2018-10-12T05:11:39.530Z,52.43
2018-10-12T05:14:09.640Z,40.43
2018-10-12T05:16:39.332Z,42.33
2018-10-12T05:19:09.230Z,41.40
2018-10-12T05:21:39.610Z,31.83
2018-10-12T05:24:09.895Z,38.67
2018-10-12T05:26:39.659Z,39.07
2018-10-12T05:29:09.220Z,30.60
2018-10-12T05:31:39.185Z,44.77
2018-10-12T05:34:08.821Z,31.13
2018-10-12T05:36:38.516Z,42.33
2018-10-12T05:39:10.903Z,41.77
2018-10-12T05:41:40.557Z,44.70
2018-10-12T05:44:10.342Z,34.40
2018-10-12T05:46:40.238Z,33.83
2018-10-12T05:49:20.768Z,31.40
2018-10-12T05:51:50.637Z,31.37
2018-10-12T05:54:20.607Z,47.17
2018-10-12T05:56:50.510Z,37.60
2018-10-12T05:59:20.424Z,36.63
2018-10-12T06:01:50.111Z,41.93
2018-10-12T06:04:19.941Z,39.33
2018-10-12T06:06:49.621Z,36.00
2018-10-12T06:09:19.443Z,40.83
2018-10-12T06:11:49.160Z,34.33
2018-10-12T06:14:18.860Z,34.47
2018-10-12T06:16:48.492Z,26.80
2018-10-12T06:19:18.060Z,29.47
2018-10-12T06:21:47.586Z,43.80
2018-10-12T06:24:17.477Z,30.23
2018-10-12T06:26:47.406Z,30.00
2018-10-12T06:29:18.674Z,29.67
2018-10-12T06:31:48.477Z,29.30
2018-10-12T06:34:18.089Z,26.13
2018-10-12T06:36:47.608Z,28.17
2018-10-12T06:39:17.464Z,26.90
2018-10-12T06:41:47.833Z,34.37
2018-10-12T06:44:17.588Z,30.07
2018-10-12T06:46:47.607Z,25.13
2018-10-12T06:49:17.109Z,24.60
2018-10-12T06:51:46.794Z,31.27
2018-10-12T06:54:16.335Z,38.90
2018-10-12T06:56:47.833Z,26.93
2018-10-12T06:59:17.887Z,29.33
2018-10-12T07:01:47.652Z,27.93
2018-10-12T07:04:17.197Z,30.23
2018-10-12T07:06:46.876Z,31.67
2018-10-12T07:09:16.673Z,32.33
2018-10-12T07:11:46.374Z,36.53
2018-10-12T07:14:15.852Z,30.00
2018-10-12T07:16:45.487Z,36.23
2018-10-12T07:19:15.314Z,32.40
2018-10-12T07:21:45.086Z,30.73
2018-10-12T07:24:14.811Z,28.07
2018-10-12T07:26:44.732Z,33.30
2018-10-12T07:29:14.344Z,36.10
2018-10-12T07:31:44.004Z,38.07
2018-10-12T07:34:13.792Z,34.40
2018-10-12T07:36:43.435Z,49.10
2018-10-12T07:39:13.151Z,42.87
2018-10-12T07:41:43.030Z,33.77
2018-10-12T07:44:12.822Z,40.93
2018-10-12T07:46:42.427Z,33.53
2018-10-12T07:49:12.101Z,33.07
2018-10-12T07:51:41.714Z,41.47
2018-10-12T07:54:11.399Z,27.60
2018-10-12T07:56:41.025Z,27.20
2018-10-12T07:59:10.816Z,42.63
2018-10-12T08:01:41.551Z,24.57
2018-10-12T08:04:11.816Z,23.60
2018-10-12T08:06:41.407Z,26.73
2018-10-12T08:09:11.251Z,29.80
2018-10-12T08:11:40.843Z,32.57
2018-10-12T08:14:10.791Z,29.73
2018-10-12T08:16:40.270Z,27.07
2018-10-12T08:19:12.991Z,25.50
2018-10-12T08:21:42.791Z,25.43
2018-10-12T08:24:12.763Z,23.27
2018-10-12T08:26:42.538Z,24.90
2018-10-12T08:29:12.323Z,21.10
2018-10-12T08:31:42.095Z,22.27
2018-10-12T08:34:11.807Z,20.33
2018-10-12T08:36:41.592Z,21.27
2018-10-12T08:39:13.055Z,30.83
2018-10-12T08:41:42.893Z,35.10
2018-10-12T08:44:12.545Z,21.77
2018-10-12T08:46:42.193Z,22.50
2018-10-12T08:49:11.790Z,27.60
2018-10-12T08:51:41.522Z,22.63
2018-10-12T08:54:11.316Z,25.13
2018-10-12T08:56:40.960Z,26.93
2018-10-12T08:59:10.740Z,33.57
2018-10-12T09:01:40.580Z,27.30
2018-10-12T09:04:10.142Z,24.00
2018-10-12T09:06:39.951Z,34.73
2018-10-12T09:09:11.316Z,24.60
2018-10-12T09:11:41.651Z,29.60
2018-10-12T09:14:11.259Z,30.47
2018-10-12T09:16:40.867Z,38.23
2018-10-12T09:19:10.657Z,33.83
2018-10-12T09:21:40.449Z,27.87
2018-10-12T09:24:10.156Z,36.97
2018-10-12T09:26:39.740Z,31.37
2018-10-12T09:29:09.494Z,21.93
2018-10-12T09:31:39.104Z,30.30
2018-10-12T09:34:09.388Z,37.57
2018-10-12T09:36:38.977Z,24.37
2018-10-12T09:39:08.955Z,25.07
2018-10-12T09:41:38.732Z,24.97
2018-10-12T09:44:08.472Z,37.47
2018-10-12T09:46:38.177Z,46.77
2018-10-12T09:49:08.244Z,31.53
2018-10-12T09:51:38.651Z,26.53
2018-10-12T09:54:08.287Z,26.33
2018-10-12T09:56:37.887Z,31.07
2018-10-12T09:59:07.710Z,21.70
2018-10-12T10:01:42.343Z,21.47
2018-10-12T10:04:16.983Z,25.37
2018-10-12T10:06:46.698Z,18.13
2018-10-12T10:09:16.202Z,17.77
2018-10-12T10:11:45.887Z,24.23
2018-10-12T10:14:15.507Z,22.23
2018-10-12T10:16:45.176Z,22.00
2018-10-12T10:19:14.877Z,30.17
2018-10-12T10:21:44.656Z,23.47
2018-10-12T10:24:14.323Z,20.83
2018-10-12T10:26:44.072Z,26.20
2018-10-12T10:29:13.860Z,20.23
2018-10-12T10:31:44.009Z,26.67
2018-10-12T10:34:13.648Z,19.83
2018-10-12T10:36:43.535Z,25.90
2018-10-12T10:39:13.965Z,22.20
2018-10-12T10:41:43.637Z,21.60
2018-10-12T10:44:13.318Z,21.50
2018-10-12T10:46:42.921Z,27.20
2018-10-12T10:49:13.620Z,17.97
2018-10-12T10:51:43.211Z,20.17
2018-10-12T10:54:12.975Z,17.53
2018-10-12T10:56:42.546Z,19.60
2018-10-12T10:59:13.299Z,17.77
2018-10-12T11:01:42.964Z,15.13
2018-10-12T11:04:13.252Z,20.73
2018-10-12T11:06:43.010Z,15.37
2018-10-12T11:09:12.805Z,20.57
2018-10-12T11:11:42.609Z,19.83
2018-10-12T11:14:12.205Z,18.27
2018-10-12T11:16:41.757Z,18.63
2018-10-12T11:19:11.564Z,20.70
2018-10-12T11:21:41.164Z,19.87
2018-10-12T11:24:10.954Z,17.67
2018-10-12T11:26:40.815Z,13.07
2018-10-12T11:29:10.501Z,15.70
2018-10-12T11:31:40.468Z,13.43
2018-10-12T11:34:11.038Z,20.40
2018-10-12T11:36:40.803Z,17.20
2018-10-12T11:39:14.651Z,19.47
2018-10-12T11:41:44.467Z,21.87
2018-10-12T11:44:14.175Z,17.83
2018-10-12T11:46:43.725Z,21.40
2018-10-12T11:49:13.343Z,18.10
2018-10-12T11:51:43.106Z,14.97
2018-10-12T11:54:12.779Z,16.53
2018-10-12T11:56:42.458Z,20.30
2018-10-12T11:59:12.018Z,17.30
2018-10-12T12:01:41.712Z,16.63
2018-10-12T12:04:11.408Z,18.30
2018-10-12T12:06:41.176Z,15.83
2018-10-12T12:09:11.212Z,19.63
2018-10-12T12:11:41.080Z,23.03
2018-10-12T12:14:10.980Z,15.67
2018-10-12T12:16:40.664Z,25.50
2018-10-12T12:19:10.332Z,21.77
2018-10-12T12:21:39.915Z,25.17
2018-10-12T12:24:09.647Z,14.93
2018-10-12T12:26:39.416Z,20.27
2018-10-12T12:29:09.096Z,19.33
2018-10-12T12:31:38.926Z,16.50
2018-10-12T12:34:08.515Z,38.33
2018-10-12T12:36:38.051Z,23.10
2018-10-12T12:39:08.837Z,18.67
2018-10-12T12:41:38.633Z,21.67
2018-10-12T12:44:08.293Z,20.73
2018-10-12T12:46:38.039Z,17.13
2018-10-12T12:49:08.132Z,37.23
2018-10-12T12:51:37.574Z,22.20
2018-10-12T12:54:07.120Z,35.87
2018-10-12T12:56:36.752Z,18.13
2018-10-12T12:59:06.396Z,27.67
2018-10-12T13:01:36.282Z,20.67
2018-10-12T13:04:06.096Z,18.17
2018-10-12T13:06:35.982Z,34.93
2018-10-12T13:09:07.017Z,32.03
2018-10-12T13:11:37.421Z,27.20
2018-10-12T13:14:07.254Z,25.03
2018-10-12T13:16:37.038Z,28.37
2018-10-12T13:19:06.676Z,28.40
2018-10-12T13:21:36.294Z,16.03
2018-10-12T13:24:06.282Z,22.67
2018-10-12T13:26:35.916Z,17.17
2018-10-12T13:29:06.127Z,18.23
2018-10-12T13:31:35.858Z,16.17
2018-10-12T13:34:05.508Z,13.80
2018-10-12T13:36:35.268Z,20.47
2018-10-12T13:39:05.959Z,17.03
2018-10-12T13:41:35.658Z,17.20
2018-10-12T13:44:05.523Z,28.10
2018-10-12T13:46:35.147Z,39.20
2018-10-12T13:49:05.060Z,25.17
2018-10-12T13:51:34.879Z,16.97
2018-10-12T13:54:04.744Z,15.53
2018-10-12T13:56:34.487Z,13.53
2018-10-12T13:59:04.385Z,14.20
2018-10-12T14:01:34.061Z,14.60
2018-10-12T14:04:03.686Z,13.67
2018-10-12T14:06:33.450Z,12.93
2018-10-12T14:09:03.396Z,14.70
2018-10-12T14:11:33.244Z,17.90
2018-10-12T14:14:03.447Z,12.97
2018-10-12T14:16:33.142Z,13.53
2018-10-12T14:19:03.260Z,15.70
2018-10-12T14:21:32.896Z,19.93
2018-10-12T14:24:02.461Z,15.67
2018-10-12T14:26:32.263Z,15.37
2018-10-12T14:29:02.087Z,19.83
2018-10-12T14:31:31.782Z,16.23
2018-10-12T14:34:01.400Z,14.97
2018-10-12T14:36:31.348Z,19.83
2018-10-12T14:39:01.037Z,24.53
2018-10-12T14:41:31.058Z,16.63
2018-10-12T14:44:01.068Z,17.83
2018-10-12T14:46:30.666Z,14.43
2018-10-12T14:49:00.496Z,13.73
2018-10-12T14:51:30.566Z,16.30
2018-10-12T14:54:00.535Z,16.47
2018-10-12T14:56:30.104Z,15.43
2018-10-12T14:58:59.788Z,15.67
2018-10-12T15:01:29.659Z,14.30
2018-10-12T15:03:59.669Z,15.90
2018-10-12T15:06:29.729Z,14.27
2018-10-12T15:09:00.383Z,16.97
2018-10-12T15:11:30.287Z,19.30
2018-10-12T15:13:59.894Z,14.07
2018-10-12T15:16:29.674Z,33.17
2018-10-12T15:18:59.361Z,12.53
2018-10-12T15:21:29.465Z,14.50
2018-10-12T15:23:58.906Z,13.20
2018-10-12T15:26:28.784Z,15.93
2018-10-12T15:28:58.591Z,14.10
2018-10-12T15:31:28.534Z,15.33
2018-10-12T15:33:58.333Z,15.97
2018-10-12T15:36:28.560Z,11.67
2018-10-12T15:38:58.369Z,24.07
2018-10-12T15:41:28.172Z,31.07
2018-10-12T15:43:57.806Z,18.60
2018-10-12T15:46:28.549Z,16.97
2018-10-12T15:48:58.465Z,17.23
2018-10-12T15:51:28.322Z,18.10
2018-10-12T15:53:57.981Z,14.80
2018-10-12T15:56:27.547Z,13.57
2018-10-12T15:58:57.297Z,14.30
2018-10-12T16:01:27.101Z,12.23
2018-10-12T16:03:56.801Z,18.27
2018-10-12T16:06:26.500Z,28.97
2018-10-12T16:08:56.418Z,22.00
2018-10-12T16:11:27.373Z,18.00
2018-10-12T16:13:57.709Z,29.43
2018-10-12T16:16:27.531Z,17.27
2018-10-12T16:18:57.328Z,20.77
2018-10-12T16:21:27.571Z,24.20
2018-10-12T16:23:57.385Z,21.23
2018-10-12T16:26:27.120Z,27.90
2018-10-12T16:28:56.926Z,30.37
2018-10-12T16:31:26.885Z,33.60
2018-10-12T16:33:56.561Z,28.50
2018-10-12T16:36:26.342Z,35.40
2018-10-12T16:38:56.167Z,28.53
2018-10-12T16:41:25.929Z,23.60
2018-10-12T16:43:55.703Z,31.93
2018-10-12T16:46:25.470Z,23.63
2018-10-12T16:48:55.657Z,22.03
2018-10-12T16:51:25.526Z,32.23
2018-10-12T16:53:55.172Z,25.40
2018-10-12T16:56:24.888Z,32.73
2018-10-12T16:58:54.639Z,32.13
2018-10-12T17:01:24.431Z,29.53
2018-10-12T17:03:53.945Z,33.87
2018-10-12T17:06:23.700Z,32.93
2018-10-12T17:08:53.638Z,30.97
2018-10-12T17:11:23.264Z,24.13
2018-10-12T17:13:52.857Z,32.27
2018-10-12T17:16:22.666Z,34.23
2018-10-12T17:18:52.153Z,28.50
2018-10-12T17:21:21.931Z,36.27
2018-10-12T17:23:51.754Z,35.73
2018-10-12T17:26:22.396Z,31.10
2018-10-12T17:28:52.193Z,31.77
2018-10-12T17:31:21.803Z,36.73
2018-10-12T17:33:51.437Z,25.03
2018-10-12T17:36:21.061Z,34.30
2018-10-12T17:38:50.814Z,41.20
2018-10-12T17:41:21.435Z,52.37
2018-10-12T17:43:51.141Z,31.17
2018-10-12T17:46:20.980Z,38.90
2018-10-12T17:48:50.589Z,33.80
2018-10-12T17:51:21.155Z,38.00
2018-10-12T17:53:50.851Z,40.50
2018-10-12T17:56:20.373Z,32.90
2018-10-12T17:58:50.119Z,28.03
2018-10-12T18:01:19.791Z,32.37
2018-10-12T18:03:49.562Z,38.47
2018-10-12T18:06:19.165Z,26.77
2018-10-12T18:08:48.919Z,25.37
2018-10-12T18:11:19.372Z,26.53
2018-10-12T18:13:48.995Z,42.40
2018-10-12T18:16:18.860Z,28.97
2018-10-12T18:18:49.039Z,35.60
2018-10-12T18:21:20.614Z,26.30
2018-10-12T18:23:50.189Z,28.83
2018-10-12T18:26:20.027Z,31.33
2018-10-12T18:28:49.863Z,31.50
2018-10-12T18:31:19.585Z,38.73
2018-10-12T18:33:49.444Z,26.50
2018-10-12T18:36:19.322Z,27.23
2018-10-12T18:38:49.171Z,37.13
2018-10-12T18:41:19.177Z,31.90
2018-10-12T18:43:49.939Z,26.87
2018-10-12T18:46:19.767Z,34.70
2018-10-12T18:48:49.430Z,35.90
2018-10-12T18:51:19.294Z,32.67
2018-10-12T18:53:49.074Z,32.73
2018-10-12T18:56:19.641Z,34.07
2018-10-12T18:58:49.390Z,31.03
2018-10-12T19:01:19.212Z,39.80
2018-10-12T19:03:49.355Z,40.93
2018-10-12T19:06:20.315Z,33.13
2018-10-12T19:08:50.360Z,42.90
2018-10-12T19:11:20.412Z,32.53
2018-10-12T19:13:50.599Z,32.87
2018-10-12T19:16:20.601Z,35.80
2018-10-12T19:18:50.410Z,31.17
2018-10-12T19:21:22.163Z,44.00
2018-10-12T19:23:52.285Z,37.90
2018-10-12T19:26:22.306Z,28.87
2018-10-12T19:28:52.547Z,27.27
2018-10-12T19:31:22.489Z,34.23
2018-10-12T19:33:52.656Z,29.60
2018-10-12T19:36:22.548Z,39.60
2018-10-12T19:38:52.543Z,40.57
2018-10-12T19:41:22.600Z,44.03
2018-10-12T19:43:52.642Z,37.90
2018-10-12T19:46:22.708Z,43.57
2018-10-12T19:48:52.635Z,38.37
2018-10-12T19:51:22.675Z,51.93
2018-10-12T19:53:52.787Z,45.13
2018-10-12T19:56:22.844Z,33.03
2018-10-12T19:58:52.842Z,38.77
2018-10-12T20:01:22.828Z,40.80
2018-10-12T20:03:52.650Z,37.70
2018-10-12T20:06:22.296Z,30.37
2018-10-12T20:08:52.149Z,37.07
2018-10-12T20:11:21.835Z,45.47
2018-10-12T20:13:51.476Z,46.03
2018-10-12T20:16:21.245Z,40.00
2018-10-12T20:18:50.977Z,41.47
2018-10-12T20:21:21.313Z,42.20
2018-10-12T20:23:51.410Z,44.17
2018-10-12T20:26:21.324Z,39.27
2018-10-12T20:28:51.216Z,39.83
2018-10-12T20:31:20.993Z,36.30
2018-10-12T20:33:51.453Z,49.63
2018-10-12T20:36:21.129Z,43.40
2018-10-12T20:38:50.997Z,52.87
2018-10-12T20:41:20.725Z,49.20
2018-10-12T20:43:50.469Z,48.77
2018-10-12T20:46:20.141Z,47.37
2018-10-12T20:48:49.698Z,46.63
2018-10-12T20:51:19.356Z,57.80
2018-10-12T20:53:49.144Z,56.30
2018-10-12T20:56:18.836Z,46.87
2018-10-12T20:58:50.821Z,40.43
2018-10-12T21:01:20.548Z,41.40
2018-10-12T21:03:50.348Z,42.80
2018-10-12T21:06:20.123Z,44.20
2018-10-12T21:08:49.873Z,47.47
2018-10-12T21:11:19.661Z,43.60
2018-10-12T21:13:49.269Z,38.97
2018-10-12T21:16:19.091Z,47.10
2018-10-12T21:18:48.835Z,40.40
2018-10-12T21:21:18.591Z,33.37
2018-10-12T21:23:48.193Z,40.63
2018-10-12T21:26:18.040Z,46.87
2018-10-12T21:28:47.904Z,48.27
2018-10-12T21:31:17.699Z,47.13
2018-10-12T21:33:47.259Z,44.03
2018-10-12T21:36:16.871Z,43.40
2018-10-12T21:38:46.344Z,46.90
2018-10-12T21:41:15.994Z,49.53
2018-10-12T21:43:45.615Z,46.73
2018-10-12T21:46:15.109Z,45.07
2018-10-12T21:48:44.891Z,43.77
2018-10-12T21:51:14.587Z,46.77
2018-10-12T21:53:44.316Z,40.73
2018-10-12T21:56:13.908Z,49.97
2018-10-12T21:58:44.282Z,43.93
2018-10-12T22:01:14.026Z,46.27
2018-10-12T22:03:43.764Z,47.83
2018-10-12T22:06:13.551Z,46.03
2018-10-12T22:08:48.383Z,41.80
2018-10-12T22:11:18.119Z,36.37
2018-10-12T22:13:47.849Z,44.37
2018-10-12T22:16:17.331Z,47.87
2018-10-12T22:18:46.988Z,49.87
2018-10-12T22:21:16.585Z,44.40
2018-10-12T22:23:46.287Z,44.43
2018-10-12T22:26:15.984Z,43.83
2018-10-12T22:28:45.774Z,46.50
2018-10-12T22:31:15.489Z,46.90
2018-10-12T22:33:45.160Z,44.40
2018-10-12T22:36:14.875Z,38.30
2018-10-12T22:38:44.426Z,40.70
2018-10-12T22:41:13.987Z,38.13
2018-10-12T22:43:43.739Z,45.37
2018-10-12T22:46:13.712Z,39.20
2018-10-12T22:48:43.426Z,41.10
2018-10-12T22:51:13.140Z,46.30
2018-10-12T22:53:42.756Z,43.57
2018-10-12T22:56:12.383Z,49.97
2018-10-12T22:58:41.937Z,46.27
2018-10-12T23:01:11.798Z,38.10
2018-10-12T23:03:41.429Z,35.07
2018-10-12T23:06:11.732Z,55.97
2018-10-12T23:08:41.334Z,46.63
2018-10-12T23:11:10.802Z,44.67
2018-10-12T23:13:40.348Z,49.63
2018-10-12T23:16:10.088Z,43.23
2018-10-12T23:18:39.872Z,39.07
2018-10-12T23:21:09.503Z,38.93
2018-10-12T23:23:39.290Z,43.43
2018-10-12T23:26:08.866Z,44.77
2018-10-12T23:28:38.396Z,46.20
2018-10-12T23:31:08.635Z,37.77
2018-10-12T23:33:49.199Z,37.97
2018-10-12T23:36:19.261Z,37.43
2018-10-12T23:38:48.867Z,39.43
2018-10-12T23:41:18.502Z,38.47
2018-10-12T23:43:47.941Z,37.53
2018-10-12T23:46:17.715Z,46.97
2018-10-12T23:48:47.297Z,37.07
2018-10-12T23:51:17.094Z,37.30
2018-10-12T23:53:47.746Z,41.27
2018-10-12T23:56:17.532Z,39.33
2018-10-12T23:58:47.707Z,33.73
